Jacksonville, NC

3:36 PM EST on January 22, 2017 (GMT -0500)
Ellis | | Change Station
Active Advisory: Small Craft Advisory

Elev 92 ft 34.83 °N, 77.61 °W | Updated 40 minutes ago

Mostly Cloudy
Mostly Cloudy
63 °F
Feels Like 63 °F
N
4
Wind Variable Wind from ESE

Today
High -- | Low -- °F
--% Chance of Precip.
Yesterday
High -- | Low -- °F
Precip. -- in
Pressure 29.55 in
Visibility 10.0 miles
Clouds Mostly Cloudy 1300 ft
Dew Point 60 °F
Humidity 90%
Rainfall 0.04 in
Snow Depth Not available.
7:14 AM 5:29 PM
Waning Crescent, 24% visible
METAR KOAJ 221956Z AUTO 11003KT 10SM BKN013 17/16 A2953 RMK AO2 SLP005 T01720156
Pressure 29.55 in
Visibility 10.0 miles
Clouds Mostly Cloudy 1300 ft
Dew Point 60 °F
Humidity 90%
Rainfall 0.04 in
Snow Depth Not available.
7:14 AM 5:29 PM
Waning Crescent, 24% visible
METAR KOAJ 221956Z AUTO 11003KT 10SM BKN013 17/16 A2953 RMK AO2 SLP005 T01720156

Get Your Daily Forecast Email!

Thanks for signing up!

Be on the lookout for a verification email in your inbox.

You'll start receiving the daily forecast at 8 AM.

×

10-Day Weather Forecast

Almanac

Astronomy

Jan. 22, 2017 Rise Set
Actual Time
Civil Twilight
Nautical Twilight
Astronomical Twilight
Moon
Length of Visible Light
Length of Day
Tomorrow will be .
, % of the Moon is Illuminated

Today's Extremes

State Highs State Lows

Community

WunderPhotos

Upload Photos

1,962,540 photos uploaded!

WunderBlog® & News

Nearby

Air Quality

  Air Quality AQ Index Pollutant
Not available.

Snow Depth

Station Depth Elevation

Earthquake Activity

City Distance Mag. Time & Date
Minimum magnitude displayed is 2.5.

Coastal Water Temperatures

Place Temperature

Stations

Nearby Weather Stations

Station Location Temp. Windchill Dew Point Humidity Wind Precip. Elev Updated Type
                   

Watches & Warnings

Small Craft Advisory
Issued: 1:42 PM EST Jan. 22, 2017 – National Weather Service

... Small Craft Advisory now in effect until midnight EST Tuesday
night...

* winds... west 15 to 25 kt with gusts up to 30 kt.

* Seas... 6 to 9 feet.

Precautionary/preparedness actions...

A Small Craft Advisory means that wind speeds of 25 to 33 knots
and/or seas of 6 feet or greater are expected to produce
hazardous wave conditions to small craft. Inexperienced
mariners... especially those operating smaller vessels should
avoid navigating in these conditions.